sensor_id;sensor_type;location;lat;lon;timestamp;P1;P2;P0
45700;PMS5003;36277;32.852;-116.998;2023-04-06T00:01:47;12.00;11.60;6.80
45700;PMS5003;36277;32.852;-116.998;2023-04-06T00:04:14;9.80;9.80;6.00
45700;PMS5003;36277;32.852;-116.998;2023-04-06T00:06:40;8.00;8.00;4.00
45700;PMS5003;36277;32.852;-116.998;2023-04-06T00:09:06;8.60;7.80;4.00
45700;PMS5003;36277;32.852;-116.998;2023-04-06T00:11:32;7.80;7.80;4.20
45700;PMS5003;36277;32.852;-116.998;2023-04-06T00:13:59;9.20;9.20;5.40
45700;PMS5003;36277;32.852;-116.998;2023-04-06T00:16:25;8.20;8.20;5.20
45700;PMS5003;36277;32.852;-116.998;2023-04-06T00:18:52;9.00;8.40;5.00
45700;PMS5003;36277;32.852;-116.998;2023-04-06T00:21:18;10.00;10.00;5.20
45700;PMS5003;36277;32.852;-116.998;2023-04-06T00:23:44;8.00;7.60;2.20
45700;PMS5003;36277;32.852;-116.998;2023-04-06T00:26:11;8.60;8.60;4.80
45700;PMS5003;36277;32.852;-116.998;2023-04-06T00:28:37;7.60;7.40;4.80
45700;PMS5003;36277;32.852;-116.998;2023-04-06T00:31:03;8.80;8.80;4.40
45700;PMS5003;36277;32.852;-116.998;2023-04-06T00:33:30;7.00;7.00;3.80
45700;PMS5003;36277;32.852;-116.998;2023-04-06T00:35:57;7.40;7.40;5.00
45700;PMS5003;36277;32.852;-116.998;2023-04-06T00:38:24;5.60;5.60;3.00
45700;PMS5003;36277;32.852;-116.998;2023-04-06T00:40:51;6.60;6.60;4.00
45700;PMS5003;36277;32.852;-116.998;2023-04-06T00:43:17;6.20;6.20;3.40
45700;PMS5003;36277;32.852;-116.998;2023-04-06T00:45:43;5.80;5.80;4.00
45700;PMS5003;36277;32.852;-116.998;2023-04-06T00:48:10;7.00;7.00;3.80
45700;PMS5003;36277;32.852;-116.998;2023-04-06T00:50:36;7.20;7.00;3.20
45700;PMS5003;36277;32.852;-116.998;2023-04-06T00:53:02;8.00;8.00;4.40
45700;PMS5003;36277;32.852;-116.998;2023-04-06T00:55:29;4.40;4.40;3.20
45700;PMS5003;36277;32.852;-116.998;2023-04-06T00:57:58;6.40;6.40;4.00
45700;PMS5003;36277;32.852;-116.998;2023-04-06T01:00:27;5.00;5.00;3.00
45700;PMS5003;36277;32.852;-116.998;2023-04-06T01:02:54;6.60;6.60;3.40
45700;PMS5003;36277;32.852;-116.998;2023-04-06T01:05:20;4.80;4.80;3.00
45700;PMS5003;36277;32.852;-116.998;2023-04-06T01:07:46;6.00;6.00;3.80
45700;PMS5003;36277;32.852;-116.998;2023-04-06T01:10:22;4.20;4.20;3.00
45700;PMS5003;36277;32.852;-116.998;2023-04-06T01:12:49;4.80;4.20;2.40
45700;PMS5003;36277;32.852;-116.998;2023-04-06T01:15:18;6.40;6.00;4.00
45700;PMS5003;36277;32.852;-116.998;2023-04-06T01:17:46;8.60;6.20;3.40
45700;PMS5003;36277;32.852;-116.998;2023-04-06T01:20:12;5.20;5.20;3.80
45700;PMS5003;36277;32.852;-116.998;2023-04-06T01:22:41;6.60;6.60;5.00
45700;PMS5003;36277;32.852;-116.998;2023-04-06T01:25:08;5.00;5.00;3.80
45700;PMS5003;36277;32.852;-116.998;2023-04-06T01:27:35;4.40;4.40;2.40
45700;PMS5003;36277;32.852;-116.998;2023-04-06T01:30:01;4.20;3.40;2.40
45700;PMS5003;36277;32.852;-116.998;2023-04-06T01:32:28;3.80;3.80;1.80
45700;PMS5003;36277;32.852;-116.998;2023-04-06T01:34:54;4.40;4.40;2.40
45700;PMS5003;36277;32.852;-116.998;2023-04-06T01:37:20;5.80;5.80;4.00
45700;PMS5003;36277;32.852;-116.998;2023-04-06T01:39:47;4.00;4.00;3.00
45700;PMS5003;36277;32.852;-116.998;2023-04-06T01:42:13;4.60;4.60;3.80
45700;PMS5003;36277;32.852;-116.998;2023-04-06T01:44:39;3.60;3.60;2.40
45700;PMS5003;36277;32.852;-116.998;2023-04-06T01:47:05;1.80;1.80;0.00
45700;PMS5003;36277;32.852;-116.998;2023-04-06T01:49:32;4.40;4.40;3.00
45700;PMS5003;36277;32.852;-116.998;2023-04-06T01:51:59;3.80;3.80;2.80
45700;PMS5003;36277;32.852;-116.998;2023-04-06T01:54:25;3.20;3.20;1.20
45700;PMS5003;36277;32.852;-116.998;2023-04-06T01:56:51;2.20;2.20;1.20
45700;PMS5003;36277;32.852;-116.998;2023-04-06T01:59:17;3.60;3.60;3.00
45700;PMS5003;36277;32.852;-116.998;2023-04-06T02:01:44;3.40;3.40;2.40
45700;PMS5003;36277;32.852;-116.998;2023-04-06T02:04:10;4.00;4.00;3.60
45700;PMS5003;36277;32.852;-116.998;2023-04-06T02:06:37;3.80;3.80;2.40
45700;PMS5003;36277;32.852;-116.998;2023-04-06T02:09:03;4.20;4.20;3.00
45700;PMS5003;36277;32.852;-116.998;2023-04-06T02:11:29;3.00;2.40;1.40
45700;PMS5003;36277;32.852;-116.998;2023-04-06T02:13:55;3.60;3.60;1.80
45700;PMS5003;36277;32.852;-116.998;2023-04-06T02:16:22;2.40;2.40;1.80
45700;PMS5003;36277;32.852;-116.998;2023-04-06T02:18:49;3.20;3.20;2.80
45700;PMS5003;36277;32.852;-116.998;2023-04-06T02:21:16;2.20;2.20;1.40
45700;PMS5003;36277;32.852;-116.998;2023-04-06T02:23:46;3.20;3.20;1.60
45700;PMS5003;36277;32.852;-116.998;2023-04-06T02:26:13;3.60;3.60;1.40
45700;PMS5003;36277;32.852;-116.998;2023-04-06T02:28:39;2.60;2.60;2.40
45700;PMS5003;36277;32.852;-116.998;2023-04-06T02:31:06;1.20;1.20;0.80
45700;PMS5003;36277;32.852;-116.998;2023-04-06T02:33:33;2.00;2.00;2.00
45700;PMS5003;36277;32.852;-116.998;2023-04-06T02:35:59;3.80;3.80;2.80
45700;PMS5003;36277;32.852;-116.998;2023-04-06T02:38:25;2.00;2.00;1.80
45700;PMS5003;36277;32.852;-116.998;2023-04-06T02:40:52;2.00;2.00;1.40
45700;PMS5003;36277;32.852;-116.998;2023-04-06T02:43:18;2.20;2.20;2.00
45700;PMS5003;36277;32.852;-116.998;2023-04-06T02:45:45;1.80;1.80;1.20
45700;PMS5003;36277;32.852;-116.998;2023-04-06T02:48:11;2.80;2.80;2.00
45700;PMS5003;36277;32.852;-116.998;2023-04-06T02:50:37;4.80;4.80;3.00
45700;PMS5003;36277;32.852;-116.998;2023-04-06T02:53:03;3.00;3.00;2.40
45700;PMS5003;36277;32.852;-116.998;2023-04-06T02:55:30;2.20;2.20;2.00
45700;PMS5003;36277;32.852;-116.998;2023-04-06T02:57:56;2.00;2.00;1.20
45700;PMS5003;36277;32.852;-116.998;2023-04-06T03:00:22;3.00;3.00;1.00
45700;PMS5003;36277;32.852;-116.998;2023-04-06T03:02:48;2.40;2.40;2.20
45700;PMS5003;36277;32.852;-116.998;2023-04-06T03:05:15;1.00;1.00;1.00
45700;PMS5003;36277;32.852;-116.998;2023-04-06T03:07:41;3.00;3.00;2.00
45700;PMS5003;36277;32.852;-116.998;2023-04-06T03:10:08;2.00;2.00;2.00
45700;PMS5003;36277;32.852;-116.998;2023-04-06T03:12:35;2.00;2.00;1.00
45700;PMS5003;36277;32.852;-116.998;2023-04-06T03:15:01;2.00;2.00;1.40
45700;PMS5003;36277;32.852;-116.998;2023-04-06T03:17:27;2.60;2.60;1.60
45700;PMS5003;36277;32.852;-116.998;2023-04-06T03:19:53;1.80;1.80;1.00
45700;PMS5003;36277;32.852;-116.998;2023-04-06T03:22:20;2.40;2.40;2.00
45700;PMS5003;36277;32.852;-116.998;2023-04-06T03:24:46;2.20;2.20;2.00
45700;PMS5003;36277;32.852;-116.998;2023-04-06T03:27:12;1.40;1.40;1.20
45700;PMS5003;36277;32.852;-116.998;2023-04-06T03:29:38;3.20;3.20;2.00
45700;PMS5003;36277;32.852;-116.998;2023-04-06T03:32:04;2.00;2.00;2.00
45700;PMS5003;36277;32.852;-116.998;2023-04-06T03:34:31;1.00;1.00;0.80
45700;PMS5003;36277;32.852;-116.998;2023-04-06T03:36:57;3.00;3.00;2.60
45700;PMS5003;36277;32.852;-116.998;2023-04-06T03:39:23;2.60;2.60;2.00
45700;PMS5003;36277;32.852;-116.998;2023-04-06T03:41:49;2.00;2.00;2.00
45700;PMS5003;36277;32.852;-116.998;2023-04-06T03:44:16;2.60;2.60;2.00
45700;PMS5003;36277;32.852;-116.998;2023-04-06T03:46:42;2.00;2.00;2.00
45700;PMS5003;36277;32.852;-116.998;2023-04-06T03:49:08;2.00;1.00;1.00
45700;PMS5003;36277;32.852;-116.998;2023-04-06T03:51:34;2.40;2.40;1.60
45700;PMS5003;36277;32.852;-116.998;2023-04-06T03:54:01;2.00;2.00;2.00
45700;PMS5003;36277;32.852;-116.998;2023-04-06T03:56:27;3.00;2.00;2.00
45700;PMS5003;36277;32.852;-116.998;2023-04-06T03:58:53;2.00;2.00;2.00
45700;PMS5003;36277;32.852;-116.998;2023-04-06T04:01:19;2.00;2.00;1.80
45700;PMS5003;36277;32.852;-116.998;2023-04-06T04:03:46;1.80;1.80;1.20
45700;PMS5003;36277;32.852;-116.998;2023-04-06T04:06:12;1.80;1.80;1.00
45700;PMS5003;36277;32.852;-116.998;2023-04-06T04:08:39;3.00;3.00;2.00
45700;PMS5003;36277;32.852;-116.998;2023-04-06T04:11:05;3.00;3.00;2.00
45700;PMS5003;36277;32.852;-116.998;2023-04-06T04:13:31;2.60;2.60;2.00
45700;PMS5003;36277;32.852;-116.998;2023-04-06T04:15:57;2.00;2.00;1.00
45700;PMS5003;36277;32.852;-116.998;2023-04-06T04:18:23;2.00;2.00;1.80
45700;PMS5003;36277;32.852;-116.998;2023-04-06T04:20:50;1.00;1.00;1.00
45700;PMS5003;36277;32.852;-116.998;2023-04-06T04:23:16;2.20;2.20;2.00
45700;PMS5003;36277;32.852;-116.998;2023-04-06T04:25:43;2.60;2.60;2.20
45700;PMS5003;36277;32.852;-116.998;2023-04-06T04:28:09;2.00;2.00;1.80
45700;PMS5003;36277;32.852;-116.998;2023-04-06T04:30:35;2.00;2.00;1.20
45700;PMS5003;36277;32.852;-116.998;2023-04-06T04:33:01;2.00;2.00;1.20
45700;PMS5003;36277;32.852;-116.998;2023-04-06T04:35:28;3.00;3.00;2.00
45700;PMS5003;36277;32.852;-116.998;2023-04-06T04:37:54;1.60;1.60;1.20
45700;PMS5003;36277;32.852;-116.998;2023-04-06T04:40:20;2.60;2.60;2.00
45700;PMS5003;36277;32.852;-116.998;2023-04-06T04:42:46;1.80;1.80;1.60
45700;PMS5003;36277;32.852;-116.998;2023-04-06T04:45:13;2.40;2.40;2.00
45700;PMS5003;36277;32.852;-116.998;2023-04-06T04:47:39;2.00;2.00;1.00
45700;PMS5003;36277;32.852;-116.998;2023-04-06T04:50:05;2.00;2.00;2.00
45700;PMS5003;36277;32.852;-116.998;2023-04-06T04:52:32;2.60;2.60;1.80
45700;PMS5003;36277;32.852;-116.998;2023-04-06T04:54:58;1.00;1.00;1.00
45700;PMS5003;36277;32.852;-116.998;2023-04-06T04:57:24;1.80;1.80;1.00
45700;PMS5003;36277;32.852;-116.998;2023-04-06T04:59:51;1.40;1.40;1.00
45700;PMS5003;36277;32.852;-116.998;2023-04-06T05:02:17;2.00;2.00;1.20
45700;PMS5003;36277;32.852;-116.998;2023-04-06T05:04:43;1.00;1.00;1.00
45700;PMS5003;36277;32.852;-116.998;2023-04-06T05:07:09;1.40;1.40;1.00
45700;PMS5003;36277;32.852;-116.998;2023-04-06T05:09:35;2.00;2.00;1.80
45700;PMS5003;36277;32.852;-116.998;2023-04-06T05:12:02;1.40;1.40;1.00
45700;PMS5003;36277;32.852;-116.998;2023-04-06T05:14:28;1.20;1.20;1.00
45700;PMS5003;36277;32.852;-116.998;2023-04-06T05:16:54;1.60;1.60;1.20
45700;PMS5003;36277;32.852;-116.998;2023-04-06T05:19:21;2.00;2.00;2.00
45700;PMS5003;36277;32.852;-116.998;2023-04-06T05:21:47;1.00;1.00;1.00
45700;PMS5003;36277;32.852;-116.998;2023-04-06T05:24:13;1.80;1.80;1.80
45700;PMS5003;36277;32.852;-116.998;2023-04-06T05:26:40;2.60;2.60;2.20
45700;PMS5003;36277;32.852;-116.998;2023-04-06T05:29:07;3.00;3.00;2.20
45700;PMS5003;36277;32.852;-116.998;2023-04-06T05:31:33;1.60;1.60;1.40
45700;PMS5003;36277;32.852;-116.998;2023-04-06T05:33:59;0.20;0.20;0.20
45700;PMS5003;36277;32.852;-116.998;2023-04-06T05:36:25;2.00;2.00;2.00
45700;PMS5003;36277;32.852;-116.998;2023-04-06T05:38:52;1.80;1.80;1.20
45700;PMS5003;36277;32.852;-116.998;2023-04-06T05:41:18;1.40;1.40;1.00
45700;PMS5003;36277;32.852;-116.998;2023-04-06T05:43:45;1.00;1.00;1.00
45700;PMS5003;36277;32.852;-116.998;2023-04-06T05:46:11;2.00;2.00;2.00
45700;PMS5003;36277;32.852;-116.998;2023-04-06T05:48:38;1.00;1.00;1.00
45700;PMS5003;36277;32.852;-116.998;2023-04-06T05:51:04;2.40;2.40;2.00
45700;PMS5003;36277;32.852;-116.998;2023-04-06T05:53:33;2.00;2.00;1.00
45700;PMS5003;36277;32.852;-116.998;2023-04-06T05:56:02;1.00;1.00;1.00
45700;PMS5003;36277;32.852;-116.998;2023-04-06T05:58:29;1.60;1.60;1.20
45700;PMS5003;36277;32.852;-116.998;2023-04-06T06:00:59;1.40;1.40;1.00
45700;PMS5003;36277;32.852;-116.998;2023-04-06T06:03:26;2.00;2.00;2.00
45700;PMS5003;36277;32.852;-116.998;2023-04-06T06:05:52;1.00;1.00;1.00
45700;PMS5003;36277;32.852;-116.998;2023-04-06T06:08:18;1.00;1.00;1.00
45700;PMS5003;36277;32.852;-116.998;2023-04-06T06:10:44;1.00;1.00;1.00
45700;PMS5003;36277;32.852;-116.998;2023-04-06T06:13:11;2.60;2.60;2.00
45700;PMS5003;36277;32.852;-116.998;2023-04-06T06:15:37;1.20;1.20;1.00
45700;PMS5003;36277;32.852;-116.998;2023-04-06T06:18:03;2.00;2.00;1.60
45700;PMS5003;36277;32.852;-116.998;2023-04-06T06:20:29;1.00;1.00;0.80
45700;PMS5003;36277;32.852;-116.998;2023-04-06T06:22:56;0.40;0.40;0.40
45700;PMS5003;36277;32.852;-116.998;2023-04-06T06:25:22;2.00;2.00;2.00
45700;PMS5003;36277;32.852;-116.998;2023-04-06T06:27:49;2.00;2.00;1.80
45700;PMS5003;36277;32.852;-116.998;2023-04-06T06:30:15;1.00;1.00;1.00
45700;PMS5003;36277;32.852;-116.998;2023-04-06T06:32:42;1.40;1.40;1.00
45700;PMS5003;36277;32.852;-116.998;2023-04-06T06:35:08;0.80;0.80;0.40
45700;PMS5003;36277;32.852;-116.998;2023-04-06T06:37:34;1.00;1.00;0.80
45700;PMS5003;36277;32.852;-116.998;2023-04-06T06:40:00;1.00;1.00;1.00
45700;PMS5003;36277;32.852;-116.998;2023-04-06T06:42:27;1.00;1.00;1.00
45700;PMS5003;36277;32.852;-116.998;2023-04-06T06:44:53;1.00;1.00;1.00
45700;PMS5003;36277;32.852;-116.998;2023-04-06T06:47:20;1.00;1.00;1.00
45700;PMS5003;36277;32.852;-116.998;2023-04-06T06:49:46;1.60;1.60;1.40
45700;PMS5003;36277;32.852;-116.998;2023-04-06T06:52:12;0.40;0.40;0.40
45700;PMS5003;36277;32.852;-116.998;2023-04-06T06:54:38;2.00;2.00;1.20
45700;PMS5003;36277;32.852;-116.998;2023-04-06T06:57:05;1.00;1.00;1.00
45700;PMS5003;36277;32.852;-116.998;2023-04-06T06:59:31;1.00;1.00;1.00
45700;PMS5003;36277;32.852;-116.998;2023-04-06T07:01:57;1.20;1.20;1.00
45700;PMS5003;36277;32.852;-116.998;2023-04-06T07:04:23;1.00;1.00;1.00
45700;PMS5003;36277;32.852;-116.998;2023-04-06T07:06:50;1.80;1.80;1.40
45700;PMS5003;36277;32.852;-116.998;2023-04-06T07:09:18;1.40;1.40;1.20
45700;PMS5003;36277;32.852;-116.998;2023-04-06T07:11:44;1.20;1.20;1.00
45700;PMS5003;36277;32.852;-116.998;2023-04-06T07:14:10;1.00;1.00;1.00
45700;PMS5003;36277;32.852;-116.998;2023-04-06T07:16:37;1.00;1.00;1.00
45700;PMS5003;36277;32.852;-116.998;2023-04-06T07:19:03;1.00;1.00;1.00
45700;PMS5003;36277;32.852;-116.998;2023-04-06T07:21:29;1.00;1.00;1.00
45700;PMS5003;36277;32.852;-116.998;2023-04-06T07:23:55;1.00;1.00;1.00
45700;PMS5003;36277;32.852;-116.998;2023-04-06T07:26:22;1.00;1.00;0.80
45700;PMS5003;36277;32.852;-116.998;2023-04-06T07:28:48;2.00;2.00;2.00
45700;PMS5003;36277;32.852;-116.998;2023-04-06T07:31:14;1.00;1.00;1.00
45700;PMS5003;36277;32.852;-116.998;2023-04-06T07:33:40;1.00;1.00;1.00
45700;PMS5003;36277;32.852;-116.998;2023-04-06T07:36:06;1.00;1.00;0.60
45700;PMS5003;36277;32.852;-116.998;2023-04-06T07:38:33;1.00;1.00;1.00
45700;PMS5003;36277;32.852;-116.998;2023-04-06T07:40:59;1.00;1.00;1.00
45700;PMS5003;36277;32.852;-116.998;2023-04-06T07:43:28;1.00;1.00;1.00
45700;PMS5003;36277;32.852;-116.998;2023-04-06T07:45:54;1.00;1.00;1.00
45700;PMS5003;36277;32.852;-116.998;2023-04-06T07:48:22;1.00;1.00;1.00
45700;PMS5003;36277;32.852;-116.998;2023-04-06T07:50:49;1.00;1.00;1.00
45700;PMS5003;36277;32.852;-116.998;2023-04-06T07:53:15;1.40;1.40;1.40
45700;PMS5003;36277;32.852;-116.998;2023-04-06T07:55:41;0.00;0.00;0.00
45700;PMS5003;36277;32.852;-116.998;2023-04-06T07:58:08;0.80;0.80;0.80
45700;PMS5003;36277;32.852;-116.998;2023-04-06T08:00:34;1.00;1.00;1.00
45700;PMS5003;36277;32.852;-116.998;2023-04-06T08:03:00;1.00;1.00;0.80
45700;PMS5003;36277;32.852;-116.998;2023-04-06T08:05:26;1.00;1.00;1.00
45700;PMS5003;36277;32.852;-116.998;2023-04-06T08:07:53;0.60;0.60;0.00
45700;PMS5003;36277;32.852;-116.998;2023-04-06T08:10:19;0.40;0.40;0.40
45700;PMS5003;36277;32.852;-116.998;2023-04-06T08:12:45;1.00;1.00;1.00
45700;PMS5003;36277;32.852;-116.998;2023-04-06T08:15:11;1.00;1.00;1.00
45700;PMS5003;36277;32.852;-116.998;2023-04-06T08:17:38;1.00;1.00;1.00
45700;PMS5003;36277;32.852;-116.998;2023-04-06T08:20:04;1.00;1.00;0.60
45700;PMS5003;36277;32.852;-116.998;2023-04-06T08:22:30;1.00;1.00;0.40
45700;PMS5003;36277;32.852;-116.998;2023-04-06T08:24:57;1.20;1.20;1.00
45700;PMS5003;36277;32.852;-116.998;2023-04-06T08:27:23;0.00;0.00;0.00
45700;PMS5003;36277;32.852;-116.998;2023-04-06T08:29:49;1.00;1.00;0.80
45700;PMS5003;36277;32.852;-116.998;2023-04-06T08:32:16;1.00;1.00;1.00
45700;PMS5003;36277;32.852;-116.998;2023-04-06T08:34:43;1.00;1.00;0.60
45700;PMS5003;36277;32.852;-116.998;2023-04-06T08:37:09;0.00;0.00;0.00
45700;PMS5003;36277;32.852;-116.998;2023-04-06T08:39:35;1.00;1.00;0.80
45700;PMS5003;36277;32.852;-116.998;2023-04-06T08:42:01;1.00;1.00;1.00
45700;PMS5003;36277;32.852;-116.998;2023-04-06T08:44:28;0.00;0.00;0.00
45700;PMS5003;36277;32.852;-116.998;2023-04-06T08:46:55;0.60;0.60;0.60
45700;PMS5003;36277;32.852;-116.998;2023-04-06T08:49:22;1.00;1.00;1.00
45700;PMS5003;36277;32.852;-116.998;2023-04-06T08:51:49;0.40;0.40;0.20
45700;PMS5003;36277;32.852;-116.998;2023-04-06T08:54:16;0.20;0.20;0.20
45700;PMS5003;36277;32.852;-116.998;2023-04-06T08:56:42;1.00;1.00;1.00
45700;PMS5003;36277;32.852;-116.998;2023-04-06T08:59:09;1.00;1.00;1.00
45700;PMS5003;36277;32.852;-116.998;2023-04-06T09:01:38;0.60;0.60;0.60
45700;PMS5003;36277;32.852;-116.998;2023-04-06T09:04:06;1.60;1.60;1.00
45700;PMS5003;36277;32.852;-116.998;2023-04-06T09:06:36;0.20;0.20;0.00
45700;PMS5003;36277;32.852;-116.998;2023-04-06T09:09:03;0.60;0.60;0.00
45700;PMS5003;36277;32.852;-116.998;2023-04-06T09:11:40;0.60;0.60;0.20
45700;PMS5003;36277;32.852;-116.998;2023-04-06T09:14:10;0.60;0.60;0.20
45700;PMS5003;36277;32.852;-116.998;2023-04-06T09:16:43;0.00;0.00;0.00
45700;PMS5003;36277;32.852;-116.998;2023-04-06T09:19:11;1.40;1.40;1.00
45700;PMS5003;36277;32.852;-116.998;2023-04-06T09:21:38;0.00;0.00;0.00
45700;PMS5003;36277;32.852;-116.998;2023-04-06T09:24:08;1.00;1.00;1.00
45700;PMS5003;36277;32.852;-116.998;2023-04-06T09:26:44;0.60;0.60;0.20
45700;PMS5003;36277;32.852;-116.998;2023-04-06T09:29:21;0.60;0.60;0.60
45700;PMS5003;36277;32.852;-116.998;2023-04-06T09:31:49;1.00;1.00;1.00
45700;PMS5003;36277;32.852;-116.998;2023-04-06T09:34:22;1.00;1.00;1.00
45700;PMS5003;36277;32.852;-116.998;2023-04-06T09:36:51;1.00;1.00;1.00
45700;PMS5003;36277;32.852;-116.998;2023-04-06T09:39:20;0.00;0.00;0.00
45700;PMS5003;36277;32.852;-116.998;2023-04-06T09:41:51;0.00;0.00;0.00
45700;PMS5003;36277;32.852;-116.998;2023-04-06T09:44:19;1.00;1.00;1.00
45700;PMS5003;36277;32.852;-116.998;2023-04-06T09:46:46;0.00;0.00;0.00
45700;PMS5003;36277;32.852;-116.998;2023-04-06T09:49:13;1.00;1.00;0.60
45700;PMS5003;36277;32.852;-116.998;2023-04-06T09:51:46;1.00;1.00;1.00
45700;PMS5003;36277;32.852;-116.998;2023-04-06T09:54:20;1.00;1.00;1.00
45700;PMS5003;36277;32.852;-116.998;2023-04-06T09:56:54;0.80;0.80;0.80
45700;PMS5003;36277;32.852;-116.998;2023-04-06T09:59:33;1.00;1.00;1.00
45700;PMS5003;36277;32.852;-116.998;2023-04-06T10:05:04;0.20;0.20;0.20
45700;PMS5003;36277;32.852;-116.998;2023-04-06T10:07:35;1.00;1.00;1.00
45700;PMS5003;36277;32.852;-116.998;2023-04-06T10:10:04;1.00;1.00;1.00
45700;PMS5003;36277;32.852;-116.998;2023-04-06T10:12:31;1.00;1.00;1.00
45700;PMS5003;36277;32.852;-116.998;2023-04-06T10:14:57;0.80;0.80;0.60
45700;PMS5003;36277;32.852;-116.998;2023-04-06T10:17:24;1.60;1.60;1.00
45700;PMS5003;36277;32.852;-116.998;2023-04-06T10:19:59;0.00;0.00;0.00
45700;PMS5003;36277;32.852;-116.998;2023-04-06T10:23:13;0.00;0.00;0.00
45700;PMS5003;36277;32.852;-116.998;2023-04-06T10:25:55;0.20;0.20;0.00
45700;PMS5003;36277;32.852;-116.998;2023-04-06T10:28:24;2.60;2.60;2.00
45700;PMS5003;36277;32.852;-116.998;2023-04-06T10:30:58;2.00;2.00;2.00
45700;PMS5003;36277;32.852;-116.998;2023-04-06T10:33:26;0.80;0.80;0.80
45700;PMS5003;36277;32.852;-116.998;2023-04-06T10:35:53;1.00;1.00;1.00
45700;PMS5003;36277;32.852;-116.998;2023-04-06T10:38:21;1.00;1.00;1.00
45700;PMS5003;36277;32.852;-116.998;2023-04-06T10:41:03;1.00;1.00;1.00
45700;PMS5003;36277;32.852;-116.998;2023-04-06T10:43:33;1.00;1.00;1.00
45700;PMS5003;36277;32.852;-116.998;2023-04-06T10:46:01;1.00;1.00;1.00
45700;PMS5003;36277;32.852;-116.998;2023-04-06T10:48:37;1.00;1.00;1.00
45700;PMS5003;36277;32.852;-116.998;2023-04-06T10:51:07;2.00;2.00;1.60
45700;PMS5003;36277;32.852;-116.998;2023-04-06T10:53:38;0.00;0.00;0.00
45700;PMS5003;36277;32.852;-116.998;2023-04-06T10:56:09;1.00;1.00;1.00
45700;PMS5003;36277;32.852;-116.998;2023-04-06T10:58:46;0.20;0.20;0.00
45700;PMS5003;36277;32.852;-116.998;2023-04-06T11:01:17;0.20;0.20;0.20
45700;PMS5003;36277;32.852;-116.998;2023-04-06T11:03:48;1.00;1.00;1.00
45700;PMS5003;36277;32.852;-116.998;2023-04-06T11:08:47;1.00;1.00;1.00
45700;PMS5003;36277;32.852;-116.998;2023-04-06T11:11:14;1.00;1.00;1.00
45700;PMS5003;36277;32.852;-116.998;2023-04-06T11:16:15;1.00;1.00;0.80
45700;PMS5003;36277;32.852;-116.998;2023-04-06T11:18:49;1.00;1.00;1.00
45700;PMS5003;36277;32.852;-116.998;2023-04-06T11:24:15;2.00;2.00;1.00
45700;PMS5003;36277;32.852;-116.998;2023-04-06T11:29:28;0.80;0.80;0.80
45700;PMS5003;36277;32.852;-116.998;2023-04-06T11:32:05;1.00;1.00;1.00
45700;PMS5003;36277;32.852;-116.998;2023-04-06T11:34:33;0.20;0.20;0.20
45700;PMS5003;36277;32.852;-116.998;2023-04-06T11:37:04;1.00;1.00;1.00
45700;PMS5003;36277;32.852;-116.998;2023-04-06T11:39:43;1.00;1.00;0.80
45700;PMS5003;36277;32.852;-116.998;2023-04-06T11:42:26;0.20;0.20;0.00
45700;PMS5003;36277;32.852;-116.998;2023-04-06T11:44:54;1.00;1.00;1.00
45700;PMS5003;36277;32.852;-116.998;2023-04-06T11:47:32;1.60;1.60;1.60
45700;PMS5003;36277;32.852;-116.998;2023-04-06T11:50:07;0.00;0.00;0.00
45700;PMS5003;36277;32.852;-116.998;2023-04-06T11:52:35;1.20;1.00;1.00
45700;PMS5003;36277;32.852;-116.998;2023-04-06T11:55:12;0.40;0.40;0.40
45700;PMS5003;36277;32.852;-116.998;2023-04-06T11:57:42;1.00;1.00;1.00
45700;PMS5003;36277;32.852;-116.998;2023-04-06T12:00:10;0.40;0.40;0.00
45700;PMS5003;36277;32.852;-116.998;2023-04-06T12:02:37;1.00;1.00;1.00
45700;PMS5003;36277;32.852;-116.998;2023-04-06T12:05:04;1.00;1.00;1.00
45700;PMS5003;36277;32.852;-116.998;2023-04-06T12:07:32;1.00;1.00;1.00
45700;PMS5003;36277;32.852;-116.998;2023-04-06T12:10:00;1.00;1.00;1.00
45700;PMS5003;36277;32.852;-116.998;2023-04-06T12:12:27;1.00;1.00;1.00
45700;PMS5003;36277;32.852;-116.998;2023-04-06T12:14:54;0.60;0.60;0.60
45700;PMS5003;36277;32.852;-116.998;2023-04-06T12:17:21;0.20;0.20;0.00
45700;PMS5003;36277;32.852;-116.998;2023-04-06T12:19:48;0.20;0.20;0.20
45700;PMS5003;36277;32.852;-116.998;2023-04-06T12:22:14;1.00;1.00;1.00
45700;PMS5003;36277;32.852;-116.998;2023-04-06T12:24:41;1.00;1.00;1.00
45700;PMS5003;36277;32.852;-116.998;2023-04-06T12:27:07;0.75;0.75;0.75
45700;PMS5003;36277;32.852;-116.998;2023-04-06T12:29:34;1.00;1.00;0.60
45700;PMS5003;36277;32.852;-116.998;2023-04-06T12:32:00;0.00;0.00;0.00
45700;PMS5003;36277;32.852;-116.998;2023-04-06T12:34:26;0.40;0.40;0.00
45700;PMS5003;36277;32.852;-116.998;2023-04-06T12:36:53;0.75;0.75;0.50
45700;PMS5003;36277;32.852;-116.998;2023-04-06T12:39:19;1.00;1.00;0.80
45700;PMS5003;36277;32.852;-116.998;2023-04-06T12:41:46;1.00;1.00;0.60
45700;PMS5003;36277;32.852;-116.998;2023-04-06T12:44:13;0.00;0.00;0.00
45700;PMS5003;36277;32.852;-116.998;2023-04-06T12:46:39;0.50;0.50;0.50
45700;PMS5003;36277;32.852;-116.998;2023-04-06T12:49:05;0.40;0.40;0.00
45700;PMS5003;36277;32.852;-116.998;2023-04-06T12:51:32;1.00;1.00;1.00
45700;PMS5003;36277;32.852;-116.998;2023-04-06T12:53:58;1.00;1.00;0.75
45700;PMS5003;36277;32.852;-116.998;2023-04-06T12:56:24;0.00;0.00;0.00
45700;PMS5003;36277;32.852;-116.998;2023-04-06T12:58:51;1.00;1.00;1.00
45700;PMS5003;36277;32.852;-116.998;2023-04-06T13:01:18;0.00;0.00;0.00
45700;PMS5003;36277;32.852;-116.998;2023-04-06T13:03:44;0.75;0.75;0.25
45700;PMS5003;36277;32.852;-116.998;2023-04-06T13:06:10;1.00;1.00;0.00
45700;PMS5003;36277;32.852;-116.998;2023-04-06T13:08:38;1.00;1.00;1.00
45700;PMS5003;36277;32.852;-116.998;2023-04-06T13:11:05;0.25;0.25;0.00
45700;PMS5003;36277;32.852;-116.998;2023-04-06T13:13:34;1.00;1.00;1.00
45700;PMS5003;36277;32.852;-116.998;2023-04-06T13:16:02;0.40;0.40;0.40
45700;PMS5003;36277;32.852;-116.998;2023-04-06T13:18:31;0.00;0.00;0.00
45700;PMS5003;36277;32.852;-116.998;2023-04-06T13:20:57;1.00;1.00;1.00
45700;PMS5003;36277;32.852;-116.998;2023-04-06T13:23:25;0.00;0.00;0.00
45700;PMS5003;36277;32.852;-116.998;2023-04-06T13:25:58;0.00;0.00;0.00
45700;PMS5003;36277;32.852;-116.998;2023-04-06T13:28:31;0.60;0.60;0.60
45700;PMS5003;36277;32.852;-116.998;2023-04-06T13:30:59;0.00;0.00;0.00
45700;PMS5003;36277;32.852;-116.998;2023-04-06T13:33:27;1.00;1.00;0.20
45700;PMS5003;36277;32.852;-116.998;2023-04-06T13:35:54;0.60;0.60;0.60
45700;PMS5003;36277;32.852;-116.998;2023-04-06T13:38:20;1.00;1.00;0.20
45700;PMS5003;36277;32.852;-116.998;2023-04-06T13:40:49;0.00;0.00;0.00
45700;PMS5003;36277;32.852;-116.998;2023-04-06T13:43:15;0.00;0.00;0.00
45700;PMS5003;36277;32.852;-116.998;2023-04-06T13:45:53;0.80;0.80;0.00
45700;PMS5003;36277;32.852;-116.998;2023-04-06T13:48:21;1.00;1.00;0.40
45700;PMS5003;36277;32.852;-116.998;2023-04-06T13:50:47;0.40;0.40;0.40
45700;PMS5003;36277;32.852;-116.998;2023-04-06T13:53:13;0.00;0.00;0.00
45700;PMS5003;36277;32.852;-116.998;2023-04-06T13:55:40;0.80;0.80;0.00
45700;PMS5003;36277;32.852;-116.998;2023-04-06T13:58:06;0.00;0.00;0.00
45700;PMS5003;36277;32.852;-116.998;2023-04-06T14:00:32;0.00;0.00;0.00
45700;PMS5003;36277;32.852;-116.998;2023-04-06T14:02:59;1.00;1.00;0.00